createdAt,value
2022-10-25T00:01:30.933Z,168
2022-10-25T00:03:31.966Z,168
2022-10-25T00:05:33.100Z,168
2022-10-25T00:11:37.103Z,168
2022-10-25T00:13:38.084Z,168
2022-10-25T00:15:39.893Z,168
2022-10-25T00:17:41.296Z,168
2022-10-25T00:21:43.573Z,168
2022-10-25T00:25:46.410Z,168
2022-10-25T00:27:47.393Z,168
2022-10-25T00:29:49.166Z,168
2022-10-25T00:33:51.211Z,168
2022-10-25T00:37:53.662Z,168
2022-10-25T00:39:55.141Z,168
2022-10-25T00:41:56.520Z,168
2022-10-25T00:43:58.154Z,167
2022-10-25T00:48:01.175Z,167
2022-10-25T00:52:04.409Z,167
2022-10-25T00:54:05.891Z,167
2022-10-25T00:56:06.980Z,167
2022-10-25T00:58:08.263Z,167
2022-10-25T01:00:09.879Z,167
2022-10-25T01:02:11.069Z,167
2022-10-25T01:04:12.800Z,167
2022-10-25T01:06:14.186Z,167
2022-10-25T01:08:15.744Z,168
2022-10-25T01:10:17.341Z,168
2022-10-25T01:12:18.314Z,168
2022-10-25T01:14:19.940Z,168
2022-10-25T01:16:21.457Z,168
2022-10-25T01:18:22.900Z,168
2022-10-25T01:20:23.842Z,168
2022-10-25T01:22:25.061Z,168
2022-10-25T01:26:27.922Z,168
2022-10-25T01:30:31.040Z,167
2022-10-25T01:32:32.177Z,167
2022-10-25T01:36:35.293Z,167
2022-10-25T01:40:37.530Z,167
2022-10-25T01:42:38.817Z,167
2022-10-25T01:44:40.283Z,167
2022-10-25T01:46:42.120Z,167
2022-10-25T01:48:43.997Z,167
2022-10-25T01:50:45.647Z,167
2022-10-25T01:52:47.156Z,167
2022-10-25T01:54:48.824Z,167
2022-10-25T01:56:50.604Z,167
2022-10-25T01:58:51.694Z,167
2022-10-25T02:00:53.104Z,167
2022-10-25T02:02:54.237Z,167
2022-10-25T02:04:55.639Z,167
2022-10-25T02:06:57.391Z,167
2022-10-25T02:08:58.434Z,167
2022-10-25T02:13:01.551Z,167
2022-10-25T02:15:02.890Z,167
2022-10-25T02:17:04.621Z,167
2022-10-25T02:19:06.111Z,167
2022-10-25T02:19:49.915Z,167
2022-10-25T02:21:51.504Z,167
2022-10-25T02:23:53.188Z,167
2022-10-25T02:29:57.864Z,167
2022-10-25T02:31:59.773Z,167
2022-10-25T02:34:00.705Z,167
2022-10-25T02:36:02.249Z,167
2022-10-25T02:38:03.170Z,167
2022-10-25T02:42:05.608Z,167
2022-10-25T02:48:09.151Z,167
2022-10-25T02:50:10.351Z,167
2022-10-25T02:52:11.791Z,167
2022-10-25T02:54:13.272Z,167
2022-10-25T02:58:15.442Z,167
2022-10-25T03:00:16.438Z,167
2022-10-25T03:02:17.506Z,167
2022-10-25T03:06:20.109Z,167
2022-10-25T03:08:21.445Z,167
2022-10-25T03:10:22.897Z,167
2022-10-25T03:14:26.301Z,167
2022-10-25T03:16:27.755Z,167
2022-10-25T03:18:28.678Z,167
2022-10-25T03:20:30.152Z,167
2022-10-25T03:22:31.682Z,167
2022-10-25T03:28:35.407Z,167
2022-10-25T03:30:36.710Z,167
2022-10-25T03:34:39.617Z,167
2022-10-25T03:36:41.472Z,167
2022-10-25T03:38:42.633Z,167
2022-10-25T03:40:44.374Z,167
2022-10-25T03:42:45.873Z,167
2022-10-25T03:44:46.894Z,167
2022-10-25T03:46:47.944Z,167
2022-10-25T03:48:49.511Z,167
2022-10-25T03:50:51.137Z,167
2022-10-25T03:54:53.993Z,167
2022-10-25T03:56:55.108Z,167
2022-10-25T03:58:56.374Z,167
2022-10-25T04:03:00.966Z,167
2022-10-25T04:07:03.265Z,167
2022-10-25T04:09:04.827Z,167
2022-10-25T04:11:06.684Z,167
2022-10-25T04:13:07.894Z,167
2022-10-25T04:17:10.590Z,167
2022-10-25T04:19:12.473Z,167
2022-10-25T04:21:13.886Z,167
2022-10-25T04:23:15.685Z,167
2022-10-25T04:25:17.492Z,167
2022-10-25T04:27:18.434Z,167
2022-10-25T04:29:20.200Z,167
2022-10-25T04:31:22.029Z,167
2022-10-25T04:33:22.987Z,167
2022-10-25T04:39:27.091Z,167
2022-10-25T04:41:28.452Z,167
2022-10-25T04:43:29.512Z,167
2022-10-25T04:45:30.617Z,167
2022-10-25T04:49:33.462Z,167
2022-10-25T04:51:34.493Z,167
2022-10-25T04:53:35.560Z,167
2022-10-25T04:55:36.462Z,167
2022-10-25T04:59:39.532Z,167
2022-10-25T05:01:41.099Z,167
2022-10-25T05:05:43.237Z,167
2022-10-25T05:09:47.239Z,167
2022-10-25T05:11:46.935Z,167
2022-10-25T05:15:49.251Z,167
2022-10-25T05:19:51.798Z,167
2022-10-25T05:21:53.604Z,167
2022-10-25T05:25:56.478Z,167
2022-10-25T05:27:58.350Z,167
2022-10-25T05:29:59.837Z,167
2022-10-25T05:32:01.314Z,167
2022-10-25T05:34:02.418Z,167
2022-10-25T05:36:03.379Z,167
2022-10-25T05:38:04.913Z,167
2022-10-25T05:40:06.605Z,167
2022-10-25T05:42:08.280Z,167
2022-10-25T05:44:09.517Z,167
2022-10-25T05:48:11.713Z,167
2022-10-25T05:50:12.684Z,167
2022-10-25T05:52:13.925Z,167
2022-10-25T05:54:15.356Z,167
2022-10-25T05:58:18.472Z,167
2022-10-25T06:00:20.200Z,167
2022-10-25T06:02:22.010Z,167
2022-10-25T06:04:23.314Z,167
2022-10-25T06:08:26.573Z,167
2022-10-25T06:10:28.355Z,167
2022-10-25T06:12:29.650Z,167
2022-10-25T06:14:30.766Z,167
2022-10-25T06:16:40.129Z,167
2022-10-25T06:18:33.254Z,167
2022-10-25T06:20:34.411Z,167
2022-10-25T06:22:35.609Z,167
2022-10-25T06:24:36.831Z,167
2022-10-25T06:26:38.104Z,167
2022-10-25T06:30:41.277Z,167
2022-10-25T06:32:42.700Z,167
2022-10-25T06:34:44.184Z,167
2022-10-25T06:36:45.389Z,167
2022-10-25T06:40:48.595Z,167
2022-10-25T06:42:49.884Z,167
2022-10-25T06:44:51.147Z,167
2022-10-25T06:47:15.733Z,167
2022-10-25T06:50:55.600Z,167
2022-10-25T06:52:57.106Z,167
2022-10-25T06:54:58.285Z,167
2022-10-25T06:56:59.750Z,167
2022-10-25T07:03:04.516Z,167
2022-10-25T07:05:05.461Z,167
2022-10-25T07:07:07.278Z,167
2022-10-25T07:09:08.864Z,167
2022-10-25T07:13:11.670Z,168
2022-10-25T07:15:13.005Z,169
2022-10-25T07:17:14.768Z,169
2022-10-25T07:19:16.686Z,169
2022-10-25T07:23:18.976Z,159
2022-10-25T07:25:20.756Z,219
2022-10-25T07:29:23.247Z,252
2022-10-25T07:31:24.232Z,252
2022-10-25T07:33:25.848Z,204
2022-10-25T07:35:26.747Z,204
2022-10-25T07:39:28.636Z,209
2022-10-25T07:43:31.851Z,208
2022-10-25T07:45:32.910Z,208
2022-10-25T07:49:35.386Z,208
2022-10-25T07:51:36.567Z,208
2022-10-25T07:53:38.305Z,208
2022-10-25T07:55:48.021Z,208
2022-10-25T07:57:41.379Z,208
2022-10-25T07:59:43.082Z,208
2022-10-25T08:01:44.189Z,208
2022-10-25T08:03:45.043Z,207
2022-10-25T08:05:46.650Z,207
2022-10-25T08:07:48.759Z,207
2022-10-25T08:09:49.596Z,208
2022-10-25T08:11:50.676Z,208
2022-10-25T08:13:51.732Z,208
2022-10-25T08:17:54.939Z,208
2022-10-25T08:21:58.210Z,208
2022-10-25T08:23:59.315Z,208
2022-10-25T08:26:01.023Z,208
2022-10-25T08:28:02.870Z,208
2022-10-25T08:30:04.356Z,208
2022-10-25T08:32:06.201Z,150
2022-10-25T08:34:07.551Z,202
2022-10-25T08:36:09.275Z,202
2022-10-25T08:38:10.877Z,202
2022-10-25T08:40:12.438Z,202
2022-10-25T08:42:13.874Z,207
2022-10-25T08:44:14.882Z,191
2022-10-25T08:46:15.931Z,180
2022-10-25T08:50:18.029Z,264
2022-10-25T08:54:20.937Z,236
2022-10-25T08:56:22.733Z,209
2022-10-25T08:58:23.822Z,208
2022-10-25T09:00:25.101Z,173
2022-10-25T09:04:28.231Z,226
2022-10-25T09:05:11.932Z,238
2022-10-25T09:07:13.457Z,212
2022-10-25T09:09:14.745Z,251
2022-10-25T09:11:16.444Z,251
2022-10-25T09:13:17.998Z,253
2022-10-25T09:15:19.021Z,229
2022-10-25T09:17:19.991Z,211
2022-10-25T09:19:20.980Z,223
2022-10-25T09:21:22.716Z,208
2022-10-25T09:23:23.360Z,267
2022-10-25T09:27:26.572Z,173
2022-10-25T09:29:28.053Z,203
2022-10-25T09:31:29.012Z,213
2022-10-25T09:37:32.727Z,200
2022-10-25T09:39:34.168Z,189
2022-10-25T09:41:35.764Z,223
2022-10-25T09:43:36.817Z,224
2022-10-25T09:47:39.495Z,239
2022-10-25T09:49:40.709Z,249
2022-10-25T09:51:42.421Z,194
2022-10-25T09:53:43.406Z,185
2022-10-25T09:57:46.093Z,205
2022-10-25T09:59:47.000Z,185
2022-10-25T10:01:47.866Z,212
2022-10-25T10:07:51.916Z,238
2022-10-25T10:09:53.351Z,360
2022-10-25T10:11:55.119Z,215
2022-10-25T10:15:56.987Z,179
2022-10-25T10:17:58.374Z,226
2022-10-25T10:19:59.281Z,197
2022-10-25T10:22:00.671Z,219
2022-10-25T10:24:01.659Z,202
2022-10-25T10:26:02.651Z,182
2022-10-25T10:30:06.307Z,189
2022-10-25T10:32:07.892Z,193
2022-10-25T10:36:10.418Z,186
2022-10-25T10:40:13.655Z,186
2022-10-25T10:42:15.311Z,189
2022-10-25T10:44:16.437Z,191
2022-10-25T10:46:17.665Z,202
2022-10-25T10:50:20.030Z,215
2022-10-25T10:52:21.012Z,177
2022-10-25T10:54:21.873Z,223
2022-10-25T10:56:23.216Z,215
2022-10-25T11:02:28.583Z,185
2022-10-25T11:04:30.333Z,185
2022-10-25T11:06:31.363Z,172
2022-10-25T11:08:32.832Z,246
2022-10-25T11:12:40.262Z,219
2022-10-25T11:14:37.743Z,217
2022-10-25T11:18:41.050Z,215
2022-10-25T11:22:44.304Z,188
2022-10-25T11:24:45.360Z,184
2022-10-25T11:26:46.315Z,178
2022-10-25T11:28:47.615Z,181
2022-10-25T11:30:48.704Z,164
2022-10-25T11:32:51.128Z,182
2022-10-25T11:34:51.183Z,169
2022-10-25T11:38:54.163Z,180
2022-10-25T11:42:56.762Z,164
2022-10-25T11:44:58.257Z,204
2022-10-25T11:46:59.495Z,185
2022-10-25T11:49:01.076Z,185
2022-10-25T11:51:02.766Z,189
2022-10-25T11:55:05.409Z,202
2022-10-25T11:57:06.816Z,185
2022-10-25T11:59:08.386Z,216
2022-10-25T12:01:09.343Z,260
2022-10-25T12:05:12.621Z,201
2022-10-25T12:07:14.318Z,202
2022-10-25T12:11:18.730Z,218
2022-10-25T12:15:21.070Z,200
2022-10-25T12:17:22.859Z,213
2022-10-25T12:21:26.179Z,221
2022-10-25T12:23:27.138Z,172
2022-10-25T12:27:29.562Z,181
2022-10-25T12:29:30.474Z,213
2022-10-25T12:31:32.244Z,184
2022-10-25T12:33:33.340Z,226
2022-10-25T12:37:36.548Z,184
2022-10-25T12:39:38.058Z,226
2022-10-25T12:41:39.721Z,121
2022-10-25T12:47:44.788Z,196
2022-10-25T12:49:46.518Z,229
2022-10-25T12:53:48.956Z,199
2022-10-25T12:57:50.808Z,187
2022-10-25T12:59:52.321Z,237
2022-10-25T13:03:55.455Z,235
2022-10-25T13:07:58.000Z,181
2022-10-25T13:09:59.729Z,237
2022-10-25T13:12:01.533Z,219
2022-10-25T13:14:03.120Z,220
2022-10-25T13:16:04.591Z,240
2022-10-25T13:18:05.416Z,161
2022-10-25T13:20:06.558Z,231
2022-10-25T13:22:07.920Z,251
2022-10-25T13:24:09.051Z,214
2022-10-25T13:26:10.121Z,186
2022-10-25T13:28:11.990Z,212
2022-10-25T13:30:13.687Z,208
2022-10-25T13:32:14.930Z,179
2022-10-25T13:36:17.467Z,274
2022-10-25T13:38:19.222Z,218
2022-10-25T13:42:21.785Z,241
2022-10-25T13:44:23.244Z,270
2022-10-25T13:46:24.280Z,187
2022-10-25T13:48:25.640Z,187
2022-10-25T13:50:28.057Z,194
2022-10-25T13:52:29.864Z,187
2022-10-25T13:54:31.354Z,210
2022-10-25T13:56:32.176Z,209
2022-10-25T13:58:33.742Z,216
2022-10-25T14:00:34.645Z,185
2022-10-25T14:02:36.193Z,225
2022-10-25T14:06:39.076Z,215
2022-10-25T14:08:40.518Z,205
2022-10-25T14:10:41.614Z,179
2022-10-25T14:12:43.048Z,214
2022-10-25T14:14:44.318Z,166
2022-10-25T14:18:47.207Z,187
2022-10-25T14:20:48.848Z,209
2022-10-25T14:22:50.378Z,196
2022-10-25T14:24:52.077Z,184
2022-10-25T14:28:55.230Z,194
2022-10-25T14:30:56.422Z,214
2022-10-25T14:34:59.823Z,212
2022-10-25T14:39:02.472Z,198
2022-10-25T14:41:04.162Z,242
2022-10-25T14:43:05.674Z,200
2022-10-25T14:45:06.827Z,199
2022-10-25T14:49:09.055Z,296
2022-10-25T14:51:10.252Z,198
2022-10-25T14:55:12.471Z,239
2022-10-25T14:57:13.578Z,255
2022-10-25T14:59:14.652Z,194
2022-10-25T15:01:16.057Z,201
2022-10-25T15:07:20.210Z,226
2022-10-25T15:09:41.580Z,226
2022-10-25T15:11:22.358Z,217
2022-10-25T15:13:23.646Z,217
2022-10-25T15:17:26.615Z,173
2022-10-25T15:19:27.695Z,247
2022-10-25T15:21:28.698Z,247
2022-10-25T15:23:29.912Z,247
2022-10-25T15:27:33.100Z,247
2022-10-25T15:29:34.317Z,247
2022-10-25T15:31:35.532Z,247
2022-10-25T15:33:37.249Z,247
2022-10-25T15:35:38.249Z,247
2022-10-25T15:37:39.084Z,247
2022-10-25T15:39:40.219Z,247
2022-10-25T15:41:41.643Z,247
2022-10-25T15:43:43.392Z,247
2022-10-25T15:45:44.780Z,247
2022-10-25T15:47:45.757Z,247
2022-10-25T15:49:47.123Z,247
2022-10-25T15:51:48.140Z,247
2022-10-25T15:54:33.242Z,247
2022-10-25T15:56:34.314Z,247
2022-10-25T15:58:35.730Z,247
2022-10-25T16:00:37.411Z,88
2022-10-25T16:04:40.219Z,88
2022-10-25T16:06:42.085Z,88
2022-10-25T16:10:45.397Z,88
2022-10-25T16:12:46.480Z,88
2022-10-25T16:14:47.256Z,88
2022-10-25T16:16:48.366Z,88
2022-10-25T16:20:51.418Z,88
2022-10-25T16:24:54.245Z,88
2022-10-25T16:26:55.986Z,88
2022-10-25T16:30:58.998Z,88
2022-10-25T16:33:00.655Z,88
2022-10-25T16:37:05.549Z,88
2022-10-25T16:39:05.083Z,89
2022-10-25T16:41:06.645Z,88
2022-10-25T16:43:07.792Z,88
2022-10-25T16:47:11.171Z,88
2022-10-25T16:49:12.664Z,88
2022-10-25T16:53:15.509Z,88
2022-10-25T16:57:18.648Z,88
2022-10-25T16:59:19.818Z,89
2022-10-25T17:03:22.583Z,89
2022-10-25T17:07:25.221Z,89
2022-10-25T17:09:26.486Z,89
2022-10-25T17:13:29.505Z,88
2022-10-25T17:15:31.268Z,89
2022-10-25T17:17:33.087Z,88
2022-10-25T17:19:34.843Z,89
2022-10-25T17:25:38.948Z,89
2022-10-25T17:27:39.978Z,89
2022-10-25T17:29:40.962Z,89
2022-10-25T17:31:42.047Z,89
2022-10-25T17:35:44.158Z,89
2022-10-25T17:37:45.758Z,89
2022-10-25T17:39:47.211Z,89
2022-10-25T17:41:49.025Z,89
2022-10-25T17:45:51.968Z,89
2022-10-25T17:47:53.484Z,89
2022-10-25T17:49:54.809Z,89
2022-10-25T17:51:56.548Z,89
2022-10-25T17:53:57.500Z,89
2022-10-25T17:55:59.330Z,89
2022-10-25T17:58:01.167Z,89
2022-10-25T18:00:02.626Z,89
2022-10-25T18:02:03.837Z,89
2022-10-25T18:04:05.448Z,89
2022-10-25T18:06:07.021Z,89
2022-10-25T18:08:08.181Z,89
2022-10-25T18:10:10.029Z,89
2022-10-25T18:12:11.814Z,89
2022-10-25T18:14:12.914Z,89
2022-10-25T18:18:15.999Z,89
2022-10-25T18:22:19.070Z,89
2022-10-25T18:24:20.872Z,89
2022-10-25T18:28:23.828Z,89
2022-10-25T18:30:25.516Z,89
2022-10-25T18:32:28.941Z,89
2022-10-25T18:34:28.133Z,89
2022-10-25T18:36:29.708Z,89
2022-10-25T18:38:31.552Z,89
2022-10-25T18:40:33.464Z,89
2022-10-25T18:42:34.496Z,89
2022-10-25T18:44:35.997Z,89
2022-10-25T18:46:36.951Z,89
2022-10-25T18:48:38.138Z,89
2022-10-25T18:50:40.478Z,89
2022-10-25T18:52:40.756Z,89
2022-10-25T18:54:42.609Z,89
2022-10-25T18:56:43.671Z,89
2022-10-25T18:58:44.774Z,89
2022-10-25T19:00:46.045Z,89
2022-10-25T19:02:47.510Z,89
2022-10-25T19:04:49.162Z,89
2022-10-25T19:06:50.497Z,89
2022-10-25T19:10:53.013Z,89
2022-10-25T19:12:54.531Z,89
2022-10-25T19:16:57.418Z,89
2022-10-25T19:20:59.515Z,89
2022-10-25T19:23:01.445Z,89
2022-10-25T19:25:03.220Z,89
2022-10-25T19:27:04.852Z,89
2022-10-25T19:31:08.119Z,89
2022-10-25T19:33:09.923Z,89
2022-10-25T19:35:11.375Z,89
2022-10-25T19:37:13.119Z,89
2022-10-25T19:39:14.333Z,89
2022-10-25T19:43:17.299Z,89
2022-10-25T19:45:18.967Z,89
2022-10-25T19:47:20.332Z,89
2022-10-25T19:49:21.933Z,89
2022-10-25T19:53:24.954Z,89
2022-10-25T19:55:25.962Z,89
2022-10-25T19:59:29.239Z,89
2022-10-25T20:03:32.097Z,89
2022-10-25T20:05:33.736Z,89
2022-10-25T20:09:36.020Z,89
2022-10-25T20:13:46.860Z,89
2022-10-25T20:15:40.159Z,89
2022-10-25T20:19:42.473Z,89
2022-10-25T20:21:44.341Z,89
2022-10-25T20:23:46.221Z,89
2022-10-25T20:25:47.427Z,89
2022-10-25T20:29:57.934Z,89
2022-10-25T20:31:51.141Z,89
2022-10-25T20:33:52.825Z,89
2022-10-25T20:35:53.808Z,89
2022-10-25T20:37:55.102Z,89
2022-10-25T20:41:58.496Z,89
2022-10-25T20:44:00.428Z,89
2022-10-25T20:46:01.782Z,89
2022-10-25T20:48:02.894Z,89
2022-10-25T20:52:05.868Z,89
2022-10-25T20:54:07.452Z,89
2022-10-25T20:56:09.317Z,89
2022-10-25T20:58:10.866Z,89
2022-10-25T21:00:14.187Z,89
2022-10-25T21:02:13.958Z,89
2022-10-25T21:04:21.838Z,89
2022-10-25T21:06:17.124Z,89
2022-10-25T21:08:18.445Z,89
2022-10-25T21:10:19.466Z,89
2022-10-25T21:12:20.606Z,89
2022-10-25T21:14:22.253Z,89
2022-10-25T21:16:23.552Z,89
2022-10-25T21:18:24.770Z,89
2022-10-25T21:20:26.409Z,89
2022-10-25T21:22:28.295Z,89
2022-10-25T21:30:34.073Z,89
2022-10-25T21:32:35.146Z,89
2022-10-25T21:36:38.214Z,89
2022-10-25T21:38:39.524Z,89
2022-10-25T21:40:41.273Z,89
2022-10-25T21:42:42.510Z,89
2022-10-25T21:44:43.866Z,89
2022-10-25T21:46:44.824Z,89
2022-10-25T21:48:46.380Z,89
2022-10-25T21:50:47.393Z,89
2022-10-25T21:52:48.540Z,89
2022-10-25T21:56:51.334Z,89
2022-10-25T21:58:52.577Z,89
2022-10-25T22:00:53.655Z,89
2022-10-25T22:02:55.072Z,89
2022-10-25T22:06:57.902Z,89
2022-10-25T22:08:59.670Z,89
2022-10-25T22:11:01.238Z,89
2022-10-25T22:13:02.310Z,89
2022-10-25T22:17:05.302Z,89
2022-10-25T22:19:07.169Z,89
2022-10-25T22:21:08.737Z,89
2022-10-25T22:23:10.006Z,89
2022-10-25T22:25:11.462Z,89
2022-10-25T22:27:13.119Z,89
2022-10-25T22:29:14.879Z,88
2022-10-25T22:31:16.659Z,89
2022-10-25T22:35:20.239Z,89
2022-10-25T22:38:05.670Z,89
2022-10-25T22:40:06.632Z,89
2022-10-25T22:44:09.817Z,89
2022-10-25T22:46:11.459Z,89
2022-10-25T22:48:12.487Z,89
2022-10-25T22:50:14.243Z,89
2022-10-25T22:52:16.013Z,89
2022-10-25T22:54:17.768Z,89
2022-10-25T22:56:18.798Z,89
2022-10-25T22:58:19.796Z,89
2022-10-25T23:00:21.805Z,89
2022-10-25T23:06:26.535Z,89
2022-10-25T23:08:27.864Z,89
2022-10-25T23:10:29.226Z,89
2022-10-25T23:12:30.679Z,89
2022-10-25T23:16:33.589Z,89
2022-10-25T23:18:34.879Z,89
2022-10-25T23:20:36.241Z,89
2022-10-25T23:26:40.443Z,89
2022-10-25T23:28:42.320Z,89
2022-10-25T23:32:53.510Z,89
2022-10-25T23:36:48.117Z,89
2022-10-25T23:38:49.306Z,89
2022-10-25T23:42:52.403Z,89
2022-10-25T23:46:55.846Z,89
2022-10-25T23:48:57.200Z,89
2022-10-25T23:53:00.304Z,89
2022-10-25T23:55:01.822Z,89
2022-10-25T23:57:03.590Z,89
2022-10-25T23:59:04.876Z,89
